Time;durP1;ratioP1;P1;durP2;ratioP2;P2;SDS_P1;SDS_P2;PMS_P1;PMS_P2;Temp;Humidity;BMP_temperature;BMP_pressure;BME280_temperature;BME280_humidity;BME280_pressure;Samples;Min_cycle;Max_cycle;Signal;HPM_P1;HPM_P2
2023/10/17 00:02:11;;;;;;;13.10;5.67;;;;;;;;;;5105217;28;20201;-61
2023/10/17 00:04:41;;;;;;;11.90;5.97;;;;;;;;;;5101204;28;20624;-61
2023/10/17 00:07:11;;;;;;;10.77;5.40;;;;;;;;;;5104468;28;20284;-61
2023/10/17 00:09:39;;;;;;;11.00;6.00;;;;;;;;;;5100883;28;20292;-61
2023/10/17 00:12:25;;;;;;;11.07;5.43;;;;;;;;;;5100954;28;20212;-61
2023/10/17 00:15:00;;;;;;;8.13;5.73;;;;;;;;;;5107295;27;20562;-61
2023/10/17 00:17:30;;;;;;;11.97;6.37;;;;;;;;;;5100984;28;20205;-61
2023/10/17 00:19:58;;;;;;;12.57;5.90;;;;;;;;;;5101002;28;20311;-61
2023/10/17 00:22:26;;;;;;;8.97;5.00;;;;;;;;;;5101112;28;20258;-61
2023/10/17 00:24:57;;;;;;;14.40;6.30;;;;;;;;;;5099750;28;20304;-61
2023/10/17 00:27:25;;;;;;;12.00;5.63;;;;;;;;;;5115421;28;20739;-61
2023/10/17 00:29:53;;;;;;;10.53;5.60;;;;;;;;;;5120046;28;20242;-61
2023/10/17 00:32:21;;;;;;;13.97;5.03;;;;;;;;;;5120501;28;20205;-61
2023/10/17 00:34:51;;;;;;;12.57;5.90;;;;;;;;;;5120157;28;20287;-61
2023/10/17 00:37:23;;;;;;;10.37;4.87;;;;;;;;;;5120177;28;20289;-61
2023/10/17 00:39:51;;;;;;;10.10;4.90;;;;;;;;;;5103274;27;20730;-61
2023/10/17 00:42:29;;;;;;;9.73;4.17;;;;;;;;;;5099737;28;20285;-62
2023/10/17 00:44:58;;;;;;;14.27;4.63;;;;;;;;;;5118288;28;20212;-61
2023/10/17 00:47:27;;;;;;;11.87;4.60;;;;;;;;;;5117910;28;20212;-63
2023/10/17 00:49:59;;;;;;;14.17;5.13;;;;;;;;;;5099766;28;20206;-63
2023/10/17 00:52:29;;;;;;;12.53;4.07;;;;;;;;;;5100274;28;20205;-61
2023/10/17 00:54:59;;;;;;;8.63;4.97;;;;;;;;;;5099946;28;20239;-62
2023/10/17 00:57:27;;;;;;;11.10;4.80;;;;;;;;;;5099496;28;20543;-61
2023/10/17 00:59:55;;;;;;;8.47;4.97;;;;;;;;;;5109039;28;20201;-61
2023/10/17 01:02:25;;;;;;;10.27;4.77;;;;;;;;;;5120770;28;20240;-61
2023/10/17 01:04:56;;;;;;;11.17;4.43;;;;;;;;;;5118657;28;20260;-61
2023/10/17 01:07:26;;;;;;;9.40;4.20;;;;;;;;;;5120154;28;20558;-61
2023/10/17 01:09:56;;;;;;;12.10;4.07;;;;;;;;;;5102210;28;20207;-61
2023/10/17 01:12:27;;;;;;;7.43;3.83;;;;;;;;;;5099314;28;20231;-61
2023/10/17 01:14:55;;;;;;;15.77;6.53;;;;;;;;;;5113906;28;20285;-61
2023/10/17 01:17:24;;;;;;;10.20;5.33;;;;;;;;;;5120443;28;20204;-61
2023/10/17 01:19:57;;;;;;;13.03;7.00;;;;;;;;;;5117376;28;20632;-61
2023/10/17 01:22:32;;;;;;;10.23;5.27;;;;;;;;;;5099593;28;20254;-61
2023/10/17 01:25:17;;;;;;;6.17;4.90;;;;;;;;;;5101474;28;20573;-61
2023/10/17 01:27:45;;;;;;;9.83;5.40;;;;;;;;;;5119865;28;20630;-61
2023/10/17 01:30:16;;;;;;;6.63;5.10;;;;;;;;;;5110985;28;20248;-61
2023/10/17 01:32:46;;;;;;;8.30;4.80;;;;;;;;;;5099321;28;20201;-61
2023/10/17 01:35:19;;;;;;;8.57;3.57;;;;;;;;;;5103598;28;20286;-61
2023/10/17 01:37:47;;;;;;;6.23;3.17;;;;;;;;;;5120271;27;20204;-61
2023/10/17 01:40:22;;;;;;;7.43;3.70;;;;;;;;;;5104937;28;20307;-61
2023/10/17 01:42:51;;;;;;;7.60;4.23;;;;;;;;;;5108659;28;20722;-61
2023/10/17 01:45:22;;;;;;;5.30;2.90;;;;;;;;;;5118594;28;20661;-61
2023/10/17 01:47:51;;;;;;;4.90;3.00;;;;;;;;;;5119587;28;20274;-61
2023/10/17 01:50:20;;;;;;;4.83;2.90;;;;;;;;;;5117649;28;20221;-61
2023/10/17 01:52:50;;;;;;;4.37;2.80;;;;;;;;;;5098975;28;20205;-61
2023/10/17 01:55:24;;;;;;;5.87;2.97;;;;;;;;;;5103757;28;20208;-61
2023/10/17 01:57:57;;;;;;;4.57;2.53;;;;;;;;;;5119359;28;20249;-61
2023/10/17 02:00:27;;;;;;;4.93;2.60;;;;;;;;;;5113482;28;20252;-62
2023/10/17 02:02:55;;;;;;;5.33;2.37;;;;;;;;;;5098289;28;20289;-61
2023/10/17 02:05:27;;;;;;;3.57;2.37;;;;;;;;;;5098166;28;20202;-61
2023/10/17 02:07:55;;;;;;;3.53;2.37;;;;;;;;;;5099355;28;20230;-61
2023/10/17 02:10:25;;;;;;;4.10;2.67;;;;;;;;;;5098709;28;20309;-61
2023/10/17 02:12:53;;;;;;;4.33;2.50;;;;;;;;;;5098499;28;20641;-61
2023/10/17 02:15:23;;;;;;;3.33;2.70;;;;;;;;;;5098826;28;20288;-61
2023/10/17 02:17:52;;;;;;;3.70;2.60;;;;;;;;;;5098881;28;20205;-61
2023/10/17 02:20:29;;;;;;;4.00;2.47;;;;;;;;;;5098495;28;20585;-61
2023/10/17 02:22:59;;;;;;;5.13;2.33;;;;;;;;;;5104538;27;20204;-61
2023/10/17 02:25:32;;;;;;;3.30;2.47;;;;;;;;;;5124110;27;20197;-61
2023/10/17 02:28:00;;;;;;;6.03;2.43;;;;;;;;;;5118422;27;20201;-61
2023/10/17 02:30:28;;;;;;;6.50;2.77;;;;;;;;;;5124749;27;20216;-61
2023/10/17 02:32:56;;;;;;;3.70;2.80;;;;;;;;;;5123022;27;20200;-61
2023/10/17 02:35:36;;;;;;;5.03;2.90;;;;;;;;;;5122876;27;20674;-61
2023/10/17 02:38:05;;;;;;;3.63;3.30;;;;;;;;;;5127749;27;20219;-61
2023/10/17 02:40:38;;;;;;;4.87;3.43;;;;;;;;;;5121452;27;20647;-61
2023/10/17 02:43:11;;;;;;;4.13;3.33;;;;;;;;;;5128498;27;20264;-62
2023/10/17 02:45:41;;;;;;;5.20;3.43;;;;;;;;;;5127936;27;20200;-61
2023/10/17 02:48:23;;;;;;;4.97;3.07;;;;;;;;;;5127219;27;20285;-62
2023/10/17 02:50:58;;;;;;;8.17;2.77;;;;;;;;;;5123406;27;20350;-61
2023/10/17 02:53:29;;;;;;;4.27;2.87;;;;;;;;;;5122058;27;20196;-61
2023/10/17 02:56:07;;;;;;;4.20;2.30;;;;;;;;;;5120774;27;20200;-61
2023/10/17 02:58:35;;;;;;;7.67;2.83;;;;;;;;;;5128382;27;20201;-61
2023/10/17 03:01:03;;;;;;;4.07;2.60;;;;;;;;;;5122647;27;20566;-61
2023/10/17 03:03:35;;;;;;;3.30;2.47;;;;;;;;;;5125919;27;20197;-62
2023/10/17 03:06:05;;;;;;;4.50;2.53;;;;;;;;;;5126346;27;20225;-61
2023/10/17 03:08:36;;;;;;;6.47;3.23;;;;;;;;;;5121023;27;20695;-60
2023/10/17 03:11:08;;;;;;;14.17;3.87;;;;;;;;;;5125568;27;20255;-59
2023/10/17 03:13:41;;;;;;;9.10;3.60;;;;;;;;;;5127655;27;20225;-61
2023/10/17 03:16:16;;;;;;;10.70;3.77;;;;;;;;;;5120872;27;20232;-60
2023/10/17 03:18:47;;;;;;;11.63;4.00;;;;;;;;;;5122768;28;20192;-60
2023/10/17 03:21:18;;;;;;;14.33;4.37;;;;;;;;;;5121472;27;20241;-60
2023/10/17 03:23:49;;;;;;;15.67;4.87;;;;;;;;;;5125460;28;20226;-61
2023/10/17 03:26:21;;;;;;;12.30;4.97;;;;;;;;;;5122455;28;20203;-60
2023/10/17 03:28:50;;;;;;;11.27;4.10;;;;;;;;;;5105209;28;20208;-61
2023/10/17 03:31:21;;;;;;;12.33;4.37;;;;;;;;;;5117319;28;20221;-61
2023/10/17 03:33:51;;;;;;;4.87;3.43;;;;;;;;;;5117893;28;20634;-61
2023/10/17 03:39:19;;;;;;;8.77;4.07;;;;;;;;;;5108489;28;20209;-61
2023/10/17 03:41:49;;;;;;;13.07;4.13;;;;;;;;;;5113266;28;20252;-61
2023/10/17 03:44:17;;;;;;;4.87;3.60;;;;;;;;;;5112816;28;20205;-61
2023/10/17 03:46:48;;;;;;;10.13;3.90;;;;;;;;;;5113103;28;20201;-62
2023/10/17 03:49:19;;;;;;;9.67;3.90;;;;;;;;;;5117311;28;20664;-61
2023/10/17 03:51:52;;;;;;;12.53;4.60;;;;;;;;;;5097523;28;20313;-61
2023/10/17 03:54:22;;;;;;;5.73;3.60;;;;;;;;;;5106653;28;20212;-60
2023/10/17 03:57:02;;;;;;;11.07;3.80;;;;;;;;;;5116820;28;20212;-61
2023/10/17 03:59:38;;;;;;;8.30;4.23;;;;;;;;;;5115724;28;20230;-61
2023/10/17 04:02:11;;;;;;;10.83;4.40;;;;;;;;;;5113544;28;20219;-62
2023/10/17 04:04:47;;;;;;;8.40;4.07;;;;;;;;;;5113849;28;20315;-61
2023/10/17 04:07:16;;;;;;;11.30;4.40;;;;;;;;;;5096924;28;20254;-62
2023/10/17 04:09:52;;;;;;;11.53;4.37;;;;;;;;;;5100662;28;20532;-61
2023/10/17 04:12:31;;;;;;;14.17;4.30;;;;;;;;;;5096985;28;20205;-63
2023/10/17 04:14:59;;;;;;;11.97;3.83;;;;;;;;;;5121164;28;20204;-62
2023/10/17 04:17:31;;;;;;;11.37;3.90;;;;;;;;;;5098308;27;20207;-63
2023/10/17 04:20:11;;;;;;;9.00;3.37;;;;;;;;;;5097137;28;20215;-62
2023/10/17 04:22:39;;;;;;;8.67;3.70;;;;;;;;;;5096932;28;20253;-63
2023/10/17 04:25:19;;;;;;;6.93;3.67;;;;;;;;;;5113037;28;20287;-61
2023/10/17 04:27:53;;;;;;;4.33;3.37;;;;;;;;;;5107907;27;20219;-62
2023/10/17 04:30:29;;;;;;;7.50;4.40;;;;;;;;;;5118556;28;20625;-63
2023/10/17 04:33:08;;;;;;;5.03;3.27;;;;;;;;;;5121359;28;20210;-63
2023/10/17 04:35:40;;;;;;;7.97;3.57;;;;;;;;;;5109273;28;20228;-61
2023/10/17 04:38:19;;;;;;;9.73;4.10;;;;;;;;;;5100495;28;20584;-61
2023/10/17 04:40:59;;;;;;;8.70;3.90;;;;;;;;;;5105133;28;20224;-61
2023/10/17 04:43:54;;;;;;;6.13;3.67;;;;;;;;;;5100384;28;20235;-61
2023/10/17 04:46:25;;;;;;;9.80;4.60;;;;;;;;;;5099304;28;20205;-61
2023/10/17 04:48:58;;;;;;;10.47;4.30;;;;;;;;;;5113110;28;20205;-61
2023/10/17 04:51:31;;;;;;;8.57;3.83;;;;;;;;;;5102593;28;20234;-61
2023/10/17 04:54:09;;;;;;;9.13;3.67;;;;;;;;;;5117879;28;20201;-61
2023/10/17 04:56:52;;;;;;;5.13;3.17;;;;;;;;;;5119346;28;20724;-61
2023/10/17 04:59:40;;;;;;;4.33;3.53;;;;;;;;;;5105736;28;20279;-62
2023/10/17 05:07:53;;;;;;;9.87;5.20;;;;;;;;;;5100086;28;20306;-61
2023/10/17 06:17:22;;;;;;;6.83;5.00;;;;;;;;;;5118887;28;20219;-60
2023/10/17 06:19:50;;;;;;;9.03;4.30;;;;;;;;;;5119129;28;20239;-62
2023/10/17 06:30:49;;;;;;;8.43;4.30;;;;;;;;;;5091029;28;20267;-62
2023/10/17 06:33:19;;;;;;;6.67;4.10;;;;;;;;;;5101381;28;20242;-61
2023/10/17 06:35:52;;;;;;;8.83;4.07;;;;;;;;;;5117661;28;20215;-60
2023/10/17 06:38:27;;;;;;;12.93;3.83;;;;;;;;;;5116218;28;20200;-61
2023/10/17 06:41:11;;;;;;;8.53;3.97;;;;;;;;;;5108828;28;20322;-61
2023/10/17 06:43:40;;;;;;;10.60;3.97;;;;;;;;;;5117563;28;20255;-61
2023/10/17 06:46:12;;;;;;;7.83;3.77;;;;;;;;;;5117015;28;20234;-61
2023/10/17 06:48:48;;;;;;;7.57;3.97;;;;;;;;;;5120125;27;20192;-63
2023/10/17 06:51:36;;;;;;;7.83;3.63;;;;;;;;;;5110786;27;20304;-64
2023/10/17 06:54:07;;;;;;;8.37;3.67;;;;;;;;;;5122822;27;20203;-64
2023/10/17 06:56:43;;;;;;;6.70;4.20;;;;;;;;;;5126893;27;20200;-64
2023/10/17 06:59:33;;;;;;;12.07;4.30;;;;;;;;;;5124202;27;20223;-63
2023/10/17 07:02:11;;;;;;;7.90;3.97;;;;;;;;;;5124966;27;20347;-62
2023/10/17 07:04:40;;;;;;;7.53;3.80;;;;;;;;;;5121798;27;20222;-62
2023/10/17 07:07:09;;;;;;;8.80;5.20;;;;;;;;;;5125053;27;20260;-62
2023/10/17 07:09:39;;;;;;;4.37;3.97;;;;;;;;;;5126007;27;20328;-62
2023/10/17 07:12:13;;;;;;;6.37;3.53;;;;;;;;;;5119806;27;20633;-63
2023/10/17 07:14:47;;;;;;;11.50;4.50;;;;;;;;;;5124588;27;20193;-63
2023/10/17 07:17:28;;;;;;;9.97;4.50;;;;;;;;;;5117582;27;20288;-63
2023/10/17 07:20:12;;;;;;;12.00;4.33;;;;;;;;;;5097571;28;20204;-64
2023/10/17 07:22:41;;;;;;;6.60;4.60;;;;;;;;;;5097962;28;20263;-63
2023/10/17 07:25:17;;;;;;;9.37;4.20;;;;;;;;;;5100373;28;20198;-63
2023/10/17 07:27:46;;;;;;;8.37;4.47;;;;;;;;;;5117977;28;20211;-63
2023/10/17 07:30:24;;;;;;;7.47;4.63;;;;;;;;;;5118179;28;20224;-63
2023/10/17 07:32:54;;;;;;;11.23;4.57;;;;;;;;;;5098649;28;20216;-63
2023/10/17 07:35:26;;;;;;;10.57;4.63;;;;;;;;;;5104843;28;20262;-64
2023/10/17 07:37:57;;;;;;;15.10;4.53;;;;;;;;;;5118174;28;20200;-64
2023/10/17 07:40:32;;;;;;;8.07;3.93;;;;;;;;;;5118086;28;20217;-64
2023/10/17 07:43:01;;;;;;;8.70;4.87;;;;;;;;;;5104993;28;20213;-64
2023/10/17 07:45:38;;;;;;;9.20;5.13;;;;;;;;;;5107880;28;20250;-64
2023/10/17 07:48:21;;;;;;;14.57;4.70;;;;;;;;;;5101662;28;20197;-64
2023/10/17 07:50:51;;;;;;;14.63;5.53;;;;;;;;;;5117904;28;20224;-64
2023/10/17 07:53:22;;;;;;;10.57;4.80;;;;;;;;;;5118034;28;20234;-64
2023/10/17 07:56:03;;;;;;;6.93;4.13;;;;;;;;;;5113745;28;20194;-64
2023/10/17 07:58:39;;;;;;;11.60;4.13;;;;;;;;;;5098399;28;20266;-64
2023/10/17 08:01:09;;;;;;;10.43;4.03;;;;;;;;;;5116624;28;20249;-64
2023/10/17 08:03:43;;;;;;;8.00;4.20;;;;;;;;;;5101160;28;20231;-65
2023/10/17 08:06:12;;;;;;;29.73;5.97;;;;;;;;;;5101422;28;20206;-65
2023/10/17 08:08:43;;;;;;;15.97;5.90;;;;;;;;;;5100721;28;20338;-65
2023/10/17 08:11:27;;;;;;;9.93;4.50;;;;;;;;;;5112854;27;20221;-63
2023/10/17 08:13:56;;;;;;;12.87;4.27;;;;;;;;;;5101129;28;20225;-63
2023/10/17 08:16:29;;;;;;;11.40;3.97;;;;;;;;;;5101251;28;20288;-64
2023/10/17 08:19:12;;;;;;;19.20;9.63;;;;;;;;;;5100703;28;20205;-62
2023/10/17 08:21:49;;;;;;;9.13;6.17;;;;;;;;;;5100890;28;20256;-65
2023/10/17 08:24:26;;;;;;;13.30;5.80;;;;;;;;;;5100386;28;20256;-65
2023/10/17 08:29:42;;;;;;;16.33;6.10;;;;;;;;;;5108469;28;20206;-65
2023/10/17 08:32:38;;;;;;;13.63;4.50;;;;;;;;;;5100192;28;20570;-64
2023/10/17 08:35:10;;;;;;;9.70;4.60;;;;;;;;;;5100644;28;20212;-65
2023/10/17 08:37:43;;;;;;;15.60;5.00;;;;;;;;;;5100478;28;20298;-65
2023/10/17 08:42:56;;;;;;;12.07;4.20;;;;;;;;;;5099137;28;20299;-64
2023/10/17 08:45:27;;;;;;;13.97;4.87;;;;;;;;;;5100679;28;20267;-64
2023/10/17 08:47:59;;;;;;;11.63;3.93;;;;;;;;;;5100277;28;20328;-64
2023/10/17 08:50:27;;;;;;;5.67;3.77;;;;;;;;;;5100521;28;20268;-64
2023/10/17 08:52:59;;;;;;;11.27;4.57;;;;;;;;;;5103257;28;20225;-64
2023/10/17 08:55:28;;;;;;;8.67;4.00;;;;;;;;;;5118903;28;20205;-64
2023/10/17 08:57:59;;;;;;;7.87;3.83;;;;;;;;;;5100904;28;20233;-64
2023/10/17 09:00:49;;;;;;;8.53;3.57;;;;;;;;;;5108016;28;20229;-64
2023/10/17 09:03:20;;;;;;;9.73;4.17;;;;;;;;;;5100047;28;20296;-64
2023/10/17 09:05:58;;;;;;;10.70;4.23;;;;;;;;;;5120032;28;20294;-64
2023/10/17 09:08:41;;;;;;;8.07;4.30;;;;;;;;;;5118528;28;20638;-64
2023/10/17 09:11:09;;;;;;;7.57;4.67;;;;;;;;;;5099996;28;20292;-64
2023/10/17 09:14:14;;;;;;;10.00;4.60;;;;;;;;;;5099319;28;20240;-65
2023/10/17 09:16:43;;;;;;;12.60;4.10;;;;;;;;;;5102133;28;20944;-64
2023/10/17 09:19:11;;;;;;;8.03;4.40;;;;;;;;;;5100075;28;20201;-64
2023/10/17 09:21:43;;;;;;;11.60;4.90;;;;;;;;;;5099569;28;20592;-64
2023/10/17 09:24:29;;;;;;;15.87;4.73;;;;;;;;;;5099719;28;20225;-64
2023/10/17 09:26:58;;;;;;;8.53;3.97;;;;;;;;;;5099463;28;20236;-64
2023/10/17 09:29:28;;;;;;;12.20;3.90;;;;;;;;;;5099566;28;20650;-64
2023/10/17 09:31:56;;;;;;;8.70;4.27;;;;;;;;;;5099026;28;20262;-64
2023/10/17 09:34:25;;;;;;;9.40;4.77;;;;;;;;;;5099636;28;20193;-64
2023/10/17 09:36:58;;;;;;;7.90;4.33;;;;;;;;;;5099424;28;20219;-64
2023/10/17 09:39:29;;;;;;;13.10;4.53;;;;;;;;;;5099648;28;20201;-64
2023/10/17 09:42:05;;;;;;;6.37;4.10;;;;;;;;;;5109546;28;20614;-64
2023/10/17 09:44:35;;;;;;;10.83;4.37;;;;;;;;;;5119870;28;20229;-64
2023/10/17 09:47:06;;;;;;;6.73;4.27;;;;;;;;;;5115778;28;20210;-64
2023/10/17 09:49:36;;;;;;;10.00;3.90;;;;;;;;;;5099368;28;20286;-64
2023/10/17 09:52:09;;;;;;;12.93;3.57;;;;;;;;;;5099520;28;20229;-64
2023/10/17 09:54:41;;;;;;;8.17;4.33;;;;;;;;;;5099045;28;20202;-64
2023/10/17 09:57:12;;;;;;;10.73;4.47;;;;;;;;;;5099080;28;20210;-64
2023/10/17 09:59:44;;;;;;;11.23;4.00;;;;;;;;;;5104793;28;20236;-64
2023/10/17 10:02:17;;;;;;;9.30;4.10;;;;;;;;;;5103518;28;20210;-65
2023/10/17 10:04:45;;;;;;;10.30;4.27;;;;;;;;;;5101651;28;20213;-64
2023/10/17 10:07:19;;;;;;;9.53;4.57;;;;;;;;;;5099340;28;20236;-65
2023/10/17 10:09:47;;;;;;;11.47;4.53;;;;;;;;;;5098847;28;20243;-65
2023/10/17 10:12:15;;;;;;;9.43;4.13;;;;;;;;;;5113394;28;20213;-65
2023/10/17 10:14:47;;;;;;;11.87;3.90;;;;;;;;;;5120540;28;20206;-66
2023/10/17 10:17:15;;;;;;;10.03;3.93;;;;;;;;;;5119913;28;20213;-65
2023/10/17 10:20:00;;;;;;;12.50;4.67;;;;;;;;;;5119539;28;20236;-65
2023/10/17 10:22:46;;;;;;;11.67;4.50;;;;;;;;;;5102844;28;20255;-65
2023/10/17 10:25:15;;;;;;;10.57;4.40;;;;;;;;;;5098185;28;20656;-66
2023/10/17 10:27:43;;;;;;;8.73;3.90;;;;;;;;;;5098245;28;20288;-65
2023/10/17 10:30:36;;;;;;;10.80;3.70;;;;;;;;;;5098720;28;20308;-64
2023/10/17 10:33:06;;;;;;;7.23;3.87;;;;;;;;;;5088449;28;20202;-65
2023/10/17 10:35:34;;;;;;;7.20;3.80;;;;;;;;;;5098621;28;20205;-65
2023/10/17 10:38:02;;;;;;;8.43;4.23;;;;;;;;;;5100316;28;20204;-65
2023/10/17 10:40:36;;;;;;;7.17;3.80;;;;;;;;;;5106808;28;20225;-65
2023/10/17 10:43:04;;;;;;;12.00;3.67;;;;;;;;;;5098478;28;20293;-65
2023/10/17 10:45:35;;;;;;;9.23;3.50;;;;;;;;;;5102547;27;20216;-65
2023/10/17 10:48:07;;;;;;;7.80;3.60;;;;;;;;;;5098078;28;20229;-65
2023/10/17 10:50:40;;;;;;;6.37;3.63;;;;;;;;;;5098125;28;20225;-65
2023/10/17 10:53:22;;;;;;;9.40;3.10;;;;;;;;;;5098108;28;20201;-65
2023/10/17 10:55:55;;;;;;;6.77;3.50;;;;;;;;;;5108102;28;20200;-65
2023/10/17 10:58:24;;;;;;;8.53;3.13;;;;;;;;;;5129698;27;20277;-65
2023/10/17 11:00:54;;;;;;;8.03;3.80;;;;;;;;;;5118703;27;20229;-63
2023/10/17 11:03:22;;;;;;;5.80;3.90;;;;;;;;;;5112958;28;20213;-65
2023/10/17 11:05:57;;;;;;;6.73;3.33;;;;;;;;;;5099132;28;20232;-63
2023/10/17 11:08:25;;;;;;;11.70;4.30;;;;;;;;;;5098176;28;20261;-64
2023/10/17 11:10:59;;;;;;;8.97;4.57;;;;;;;;;;5101282;28;20255;-63
2023/10/17 11:13:34;;;;;;;8.57;5.20;;;;;;;;;;5102521;28;20289;-64
2023/10/17 11:16:04;;;;;;;9.07;5.00;;;;;;;;;;5098142;28;20292;-63
2023/10/17 11:18:38;;;;;;;7.27;4.30;;;;;;;;;;5111555;28;20644;-64
2023/10/17 11:21:08;;;;;;;5.73;4.17;;;;;;;;;;5097602;28;20235;-64
2023/10/17 11:23:38;;;;;;;6.97;4.23;;;;;;;;;;5102384;28;20206;-64
2023/10/17 11:26:10;;;;;;;9.97;6.63;;;;;;;;;;5113664;28;20745;-64
2023/10/17 11:28:55;;;;;;;6.00;4.13;;;;;;;;;;5107390;28;20220;-63
2023/10/17 11:31:24;;;;;;;4.80;3.93;;;;;;;;;;5103456;28;20224;-63
2023/10/17 11:33:54;;;;;;;8.80;4.50;;;;;;;;;;5102390;28;20292;-63
2023/10/17 11:36:24;;;;;;;12.67;4.70;;;;;;;;;;5102625;28;20208;-64
2023/10/17 11:38:56;;;;;;;7.77;4.30;;;;;;;;;;5102037;28;20297;-63
2023/10/17 11:41:29;;;;;;;8.60;4.63;;;;;;;;;;5111139;28;20221;-63
2023/10/17 11:44:04;;;;;;;5.27;3.53;;;;;;;;;;5101872;28;20302;-64
2023/10/17 11:46:33;;;;;;;8.73;4.20;;;;;;;;;;5108599;28;20284;-64
2023/10/17 11:49:20;;;;;;;4.40;2.37;;;;;;;;;;5122172;28;20215;-64
2023/10/17 11:51:57;;;;;;;2.83;1.87;;;;;;;;;;5122197;28;20220;-66
2023/10/17 11:54:25;;;;;;;5.00;2.47;;;;;;;;;;5122042;28;20207;-64
2023/10/17 11:56:56;;;;;;;4.00;1.57;;;;;;;;;;5123305;27;20197;-64
2023/10/17 11:59:25;;;;;;;4.33;2.00;;;;;;;;;;5105580;28;20301;-63
2023/10/17 12:01:53;;;;;;;3.10;1.30;;;;;;;;;;5107363;28;20233;-64
2023/10/17 12:04:23;;;;;;;4.83;1.50;;;;;;;;;;5116602;28;20228;-63
2023/10/17 12:06:53;;;;;;;4.03;1.37;;;;;;;;;;5121595;28;20278;-61
2023/10/17 12:09:23;;;;;;;2.07;1.57;;;;;;;;;;5121539;28;20232;-62
2023/10/17 12:11:52;;;;;;;4.03;1.60;;;;;;;;;;5121044;28;20369;-62
2023/10/17 12:14:21;;;;;;;1.33;1.23;;;;;;;;;;5121525;28;20223;-62
2023/10/17 12:16:49;;;;;;;2.37;1.40;;;;;;;;;;5121600;28;20197;-63
2023/10/17 12:19:18;;;;;;;2.57;1.60;;;;;;;;;;5121403;28;20720;-61
2023/10/17 12:21:48;;;;;;;3.00;1.83;;;;;;;;;;5102383;28;20256;-62
2023/10/17 12:24:20;;;;;;;5.37;1.47;;;;;;;;;;5100749;28;20197;-62
2023/10/17 12:26:49;;;;;;;2.20;1.50;;;;;;;;;;5117214;28;20598;-62
2023/10/17 12:29:17;;;;;;;6.47;1.60;;;;;;;;;;5120283;28;20222;-62
2023/10/17 12:31:45;;;;;;;3.43;1.57;;;;;;;;;;5110586;28;20255;-62
2023/10/17 12:34:15;;;;;;;2.17;1.30;;;;;;;;;;5115899;28;20217;-62
2023/10/17 12:36:46;;;;;;;5.57;1.50;;;;;;;;;;5100470;28;21083;-62
2023/10/17 12:39:16;;;;;;;4.57;1.77;;;;;;;;;;5102532;28;20202;-62
2023/10/17 12:41:48;;;;;;;2.77;1.77;;;;;;;;;;5106949;28;20217;-62
2023/10/17 12:44:17;;;;;;;4.33;1.23;;;;;;;;;;5110134;28;20205;-63
2023/10/17 12:46:46;;;;;;;2.93;1.23;;;;;;;;;;5102496;28;20285;-62
2023/10/17 12:49:15;;;;;;;5.97;1.50;;;;;;;;;;5101134;28;20566;-61
2023/10/17 12:51:47;;;;;;;2.60;1.50;;;;;;;;;;5100068;28;20240;-62
2023/10/17 12:54:15;;;;;;;1.77;1.67;;;;;;;;;;5105575;28;20197;-63
2023/10/17 12:56:43;;;;;;;2.07;1.30;;;;;;;;;;5120380;28;20670;-62
2023/10/17 12:59:13;;;;;;;3.43;1.20;;;;;;;;;;5120542;28;20266;-62
2023/10/17 13:01:41;;;;;;;1.60;1.50;;;;;;;;;;5104887;28;20223;-61
2023/10/17 13:04:09;;;;;;;3.40;1.60;;;;;;;;;;5107698;28;20289;-63
2023/10/17 13:06:38;;;;;;;2.17;1.73;;;;;;;;;;5117835;28;20224;-61
2023/10/17 13:09:06;;;;;;;2.83;1.20;;;;;;;;;;5120172;28;20241;-62
2023/10/17 13:11:34;;;;;;;1.43;1.30;;;;;;;;;;5111983;28;20258;-62
2023/10/17 13:14:02;;;;;;;1.50;1.30;;;;;;;;;;5099786;28;20202;-61
2023/10/17 13:16:33;;;;;;;3.47;1.90;;;;;;;;;;5099745;28;20240;-61
2023/10/17 13:19:06;;;;;;;4.40;1.40;;;;;;;;;;5110168;28;20205;-63
2023/10/17 13:21:36;;;;;;;2.30;1.50;;;;;;;;;;5121158;28;20236;-61
2023/10/17 13:24:05;;;;;;;1.50;1.00;;;;;;;;;;5113888;28;20202;-62
2023/10/17 13:26:33;;;;;;;2.43;1.10;;;;;;;;;;5099696;28;20224;-62
2023/10/17 13:29:01;;;;;;;3.53;1.17;;;;;;;;;;5110637;28;20215;-62
2023/10/17 13:31:29;;;;;;;2.67;1.43;;;;;;;;;;5120037;28;20221;-62
2023/10/17 13:33:58;;;;;;;2.50;1.53;;;;;;;;;;5119861;27;20290;-62
2023/10/17 13:36:27;;;;;;;1.50;1.27;;;;;;;;;;5120116;28;20209;-61
2023/10/17 13:38:54;;;;;;;2.37;1.50;;;;;;;;;;5107219;28;20214;-61
2023/10/17 13:41:25;;;;;;;1.10;0.97;;;;;;;;;;5108133;28;20239;-61
2023/10/17 13:43:53;;;;;;;1.47;1.23;;;;;;;;;;5099457;28;20210;-62
2023/10/17 13:46:20;;;;;;;2.63;2.30;;;;;;;;;;5113400;28;20593;-61
2023/10/17 13:48:49;;;;;;;1.53;1.30;;;;;;;;;;5117576;28;20202;-61
2023/10/17 13:51:20;;;;;;;1.30;1.20;;;;;;;;;;5118503;28;20215;-61
2023/10/17 13:53:48;;;;;;;4.27;1.50;;;;;;;;;;5113197;28;20204;-63
2023/10/17 13:56:18;;;;;;;4.33;1.73;;;;;;;;;;5098686;28;20573;-63
2023/10/17 13:58:46;;;;;;;5.17;1.73;;;;;;;;;;5098833;28;20742;-61
2023/10/17 14:04:03;;;;;;;3.03;1.30;;;;;;;;;;5106106;27;20212;-62
2023/10/17 14:06:34;;;;;;;4.73;1.60;;;;;;;;;;5099081;28;20229;-62
2023/10/17 14:09:03;;;;;;;4.40;1.80;;;;;;;;;;5105702;28;20771;-61
2023/10/17 14:11:31;;;;;;;3.20;1.60;;;;;;;;;;5113619;27;20228;-62
2023/10/17 14:13:59;;;;;;;5.80;1.73;;;;;;;;;;5099379;28;20238;-62
2023/10/17 14:16:27;;;;;;;2.30;1.80;;;;;;;;;;5098777;28;20218;-62
2023/10/17 14:19:04;;;;;;;2.40;1.87;;;;;;;;;;5101185;28;20704;-63
2023/10/17 14:21:39;;;;;;;8.10;1.70;;;;;;;;;;5118858;28;20326;-62
2023/10/17 14:24:10;;;;;;;4.93;1.70;;;;;;;;;;5119031;28;20208;-63
2023/10/17 14:26:39;;;;;;;10.97;7.67;;;;;;;;;;5118817;28;20222;-62
2023/10/17 14:29:07;;;;;;;4.40;2.50;;;;;;;;;;5118810;28;20616;-62
2023/10/17 14:31:36;;;;;;;8.17;1.90;;;;;;;;;;5118702;28;20570;-62
2023/10/17 14:34:04;;;;;;;2.23;1.37;;;;;;;;;;5118850;28;20205;-62
2023/10/17 14:36:32;;;;;;;2.83;1.30;;;;;;;;;;5110824;28;20213;-63
2023/10/17 14:39:01;;;;;;;4.70;1.43;;;;;;;;;;5097843;28;20205;-62
2023/10/17 14:41:30;;;;;;;5.37;1.90;;;;;;;;;;5102414;28;20250;-62
2023/10/17 14:43:58;;;;;;;3.23;1.97;;;;;;;;;;5098371;28;20259;-62
2023/10/17 14:46:26;;;;;;;4.00;1.43;;;;;;;;;;5098250;28;20727;-63
2023/10/17 14:48:54;;;;;;;2.70;1.70;;;;;;;;;;5110524;28;20196;-62
2023/10/17 14:51:22;;;;;;;7.77;1.70;;;;;;;;;;5117296;27;20564;-62
2023/10/17 14:53:50;;;;;;;3.43;1.40;;;;;;;;;;5110317;28;20212;-63
2023/10/17 14:56:27;;;;;;;1.30;1.20;;;;;;;;;;5097828;28;20519;-62
2023/10/17 14:58:55;;;;;;;2.07;1.40;;;;;;;;;;5101358;28;20225;-63
2023/10/17 15:01:24;;;;;;;1.83;1.40;;;;;;;;;;5104499;28;20264;-63
2023/10/17 15:03:52;;;;;;;5.10;1.33;;;;;;;;;;5107793;28;20202;-64
2023/10/17 15:06:20;;;;;;;4.30;1.70;;;;;;;;;;5120832;27;20207;-62
2023/10/17 15:08:48;;;;;;;1.60;1.23;;;;;;;;;;5125871;27;20224;-63
2023/10/17 15:11:16;;;;;;;3.73;1.30;;;;;;;;;;5125207;27;20562;-63
2023/10/17 15:13:45;;;;;;;4.30;1.60;;;;;;;;;;5124032;27;20196;-63
2023/10/17 15:16:14;;;;;;;2.50;1.30;;;;;;;;;;5126740;27;20311;-63
2023/10/17 15:18:44;;;;;;;1.27;1.17;;;;;;;;;;5118614;27;20248;-64
2023/10/17 15:21:13;;;;;;;8.33;1.60;;;;;;;;;;5115810;27;20218;-62
2023/10/17 15:23:41;;;;;;;2.97;1.70;;;;;;;;;;5124778;27;20199;-64
2023/10/17 15:26:10;;;;;;;2.10;1.57;;;;;;;;;;5117550;28;20237;-63
2023/10/17 15:28:39;;;;;;;2.20;1.60;;;;;;;;;;5101058;28;20265;-62
2023/10/17 15:31:09;;;;;;;1.87;1.37;;;;;;;;;;5101139;28;20780;-64
2023/10/17 15:33:38;;;;;;;2.00;1.27;;;;;;;;;;5099942;28;20196;-63
2023/10/17 15:36:11;;;;;;;4.97;1.67;;;;;;;;;;5109708;28;20252;-64
2023/10/17 15:38:40;;;;;;;4.07;1.67;;;;;;;;;;5109946;27;20563;-64
2023/10/17 15:41:09;;;;;;;3.60;1.50;;;;;;;;;;5102837;28;20257;-64
2023/10/17 15:43:37;;;;;;;2.90;1.53;;;;;;;;;;5097420;28;20244;-63
2023/10/17 15:46:04;;;;;;;2.67;1.80;;;;;;;;;;5097580;28;20201;-64
2023/10/17 15:48:34;;;;;;;3.40;1.67;;;;;;;;;;5097982;28;20222;-64
2023/10/17 15:51:02;;;;;;;4.03;1.90;;;;;;;;;;5107448;28;20224;-63
2023/10/17 15:53:31;;;;;;;4.50;1.60;;;;;;;;;;5099881;28;20264;-63
2023/10/17 15:56:01;;;;;;;2.27;1.60;;;;;;;;;;5096647;28;20224;-62
2023/10/17 15:58:29;;;;;;;3.93;1.90;;;;;;;;;;5098270;28;20563;-63
2023/10/17 16:00:57;;;;;;;3.33;1.77;;;;;;;;;;5102397;28;20708;-63
2023/10/17 16:03:28;;;;;;;1.83;1.40;;;;;;;;;;5113049;28;20713;-62
2023/10/17 16:05:58;;;;;;;2.37;1.10;;;;;;;;;;5115226;28;20209;-62
2023/10/17 16:08:26;;;;;;;3.63;1.17;;;;;;;;;;5096483;28;20233;-62
2023/10/17 16:10:55;;;;;;;2.40;1.00;;;;;;;;;;5096927;28;20288;-63
2023/10/17 16:13:24;;;;;;;3.47;1.37;;;;;;;;;;5100874;28;20209;-62
2023/10/17 16:15:57;;;;;;;1.40;0.80;;;;;;;;;;5104070;27;20238;-63
2023/10/17 16:18:25;;;;;;;1.23;1.13;;;;;;;;;;5110057;28;20233;-62
2023/10/17 16:20:53;;;;;;;1.30;0.90;;;;;;;;;;5109949;27;20625;-62
2023/10/17 16:23:22;;;;;;;1.33;1.07;;;;;;;;;;5100562;28;20220;-63
2023/10/17 16:25:52;;;;;;;1.37;1.20;;;;;;;;;;5100697;28;20216;-64
2023/10/17 16:28:20;;;;;;;1.63;1.20;;;;;;;;;;5102893;28;20251;-64
2023/10/17 16:30:48;;;;;;;2.43;1.23;;;;;;;;;;5099879;28;20313;-63
2023/10/17 16:33:17;;;;;;;3.57;1.20;;;;;;;;;;5094560;28;20201;-62
2023/10/17 16:35:45;;;;;;;1.40;1.27;;;;;;;;;;5095418;28;20193;-63
2023/10/17 16:38:14;;;;;;;2.93;1.50;;;;;;;;;;5096346;28;20198;-63
2023/10/17 16:40:44;;;;;;;4.83;1.57;;;;;;;;;;5095790;28;20681;-63